Destin, Florida
Current Conditions -  °F | °C
As of 12:53 PM on Saturday 25 Oct 2014 (Local Time) from KDTS Reporting Station
Clear Clear  
Wind Chill: 78°   Ceiling: Unl
Heat Index: 78°   Visibility: 10mi
Dew Point: 46°   Wind: 9mph
Humidity: 32%   Direction: 10°N
Pressure: 30.05"   Gusts: NA
Location:  30.39°N, 86.49°W
Report Text: KDTS 251753Z AUTO 01008KT 10SM CLR 26/08 A3005 RMK AO2 SLP174 T02560078 10256 20139 58016 TSNO
Loading
Personal Weather Stations






























Interactive Weather Map New forecast layout! Learn more

10-Day Weather Forecast

Advertisements
Track Severe Weather on mobile